sensor_id;sensor_type;location;lat;lon;timestamp;temperature;humidity
71039;SHT30;58692;43.212;27.908;2023-03-04T00:02:25;7.39;91.89
71039;SHT30;58692;43.212;27.908;2023-03-04T00:04:51;7.36;92.12
71039;SHT30;58692;43.212;27.908;2023-03-04T00:07:18;7.40;92.00
71039;SHT30;58692;43.212;27.908;2023-03-04T00:09:45;7.38;91.83
71039;SHT30;58692;43.212;27.908;2023-03-04T00:12:11;7.39;91.89
71039;SHT30;58692;43.212;27.908;2023-03-04T00:14:37;7.35;91.75
71039;SHT30;58692;43.212;27.908;2023-03-04T00:17:03;7.32;91.87
71039;SHT30;58692;43.212;27.908;2023-03-04T00:19:30;7.32;91.93
71039;SHT30;58692;43.212;27.908;2023-03-04T00:21:55;7.35;91.95
71039;SHT30;58692;43.212;27.908;2023-03-04T00:24:21;7.36;91.79
71039;SHT30;58692;43.212;27.908;2023-03-04T00:26:47;7.39;91.54
71039;SHT30;58692;43.212;27.908;2023-03-04T00:29:12;7.42;91.75
71039;SHT30;58692;43.212;27.908;2023-03-04T00:31:38;7.36;92.05
71039;SHT30;58692;43.212;27.908;2023-03-04T00:34:03;7.33;91.81
71039;SHT30;58692;43.212;27.908;2023-03-04T00:36:29;7.32;92.20
71039;SHT30;58692;43.212;27.908;2023-03-04T00:38:55;7.29;92.34
71039;SHT30;58692;43.212;27.908;2023-03-04T00:41:20;7.29;92.50
71039;SHT30;58692;43.212;27.908;2023-03-04T00:43:46;7.28;92.27
71039;SHT30;58692;43.212;27.908;2023-03-04T00:46:11;7.26;92.34
71039;SHT30;58692;43.212;27.908;2023-03-04T00:48:37;7.23;92.54
71039;SHT30;58692;43.212;27.908;2023-03-04T00:51:03;7.19;93.09
71039;SHT30;58692;43.212;27.908;2023-03-04T00:53:29;7.25;93.09
71039;SHT30;58692;43.212;27.908;2023-03-04T00:55:55;7.21;93.20
71039;SHT30;58692;43.212;27.908;2023-03-04T00:58:20;7.25;93.06
71039;SHT30;58692;43.212;27.908;2023-03-04T01:00:46;7.30;93.45
71039;SHT30;58692;43.212;27.908;2023-03-04T01:03:11;7.25;93.19
71039;SHT30;58692;43.212;27.908;2023-03-04T01:05:37;7.30;93.26
71039;SHT30;58692;43.212;27.908;2023-03-04T01:08:03;7.32;93.36
71039;SHT30;58692;43.212;27.908;2023-03-04T01:10:30;7.39;93.09
71039;SHT30;58692;43.212;27.908;2023-03-04T01:12:56;7.36;93.12
71039;SHT30;58692;43.212;27.908;2023-03-04T01:15:22;7.38;93.29
71039;SHT30;58692;43.212;27.908;2023-03-04T01:17:48;7.42;93.12
71039;SHT30;58692;43.212;27.908;2023-03-04T01:20:14;7.36;92.87
71039;SHT30;58692;43.212;27.908;2023-03-04T01:22:40;7.29;92.89
71039;SHT30;58692;43.212;27.908;2023-03-04T01:25:06;7.23;93.29
71039;SHT30;58692;43.212;27.908;2023-03-04T01:27:32;7.25;93.43
71039;SHT30;58692;43.212;27.908;2023-03-04T01:29:57;7.28;93.06
71039;SHT30;58692;43.212;27.908;2023-03-04T01:32:23;7.25;92.87
71039;SHT30;58692;43.212;27.908;2023-03-04T01:34:49;7.19;93.21
71039;SHT30;58692;43.212;27.908;2023-03-04T01:37:14;7.25;92.91
71039;SHT30;58692;43.212;27.908;2023-03-04T01:39:40;7.28;92.86
71039;SHT30;58692;43.212;27.908;2023-03-04T01:42:06;7.33;92.54
71039;SHT30;58692;43.212;27.908;2023-03-04T01:44:37;7.23;92.51
71039;SHT30;58692;43.212;27.908;2023-03-04T01:47:02;7.21;92.26
71039;SHT30;58692;43.212;27.908;2023-03-04T01:49:28;7.33;92.45
71039;SHT30;58692;43.212;27.908;2023-03-04T01:51:53;7.29;92.16
71039;SHT30;58692;43.212;27.908;2023-03-04T01:54:21;7.38;92.10
71039;SHT30;58692;43.212;27.908;2023-03-04T01:56:47;7.43;92.05
71039;SHT30;58692;43.212;27.908;2023-03-04T01:59:15;7.40;91.63
71039;SHT30;58692;43.212;27.908;2023-03-04T02:01:46;7.40;91.63
71039;SHT30;58692;43.212;27.908;2023-03-04T02:04:13;7.40;91.37
71039;SHT30;58692;43.212;27.908;2023-03-04T02:06:40;7.39;91.55
71039;SHT30;58692;43.212;27.908;2023-03-04T02:09:06;7.39;91.22
71039;SHT30;58692;43.212;27.908;2023-03-04T02:11:33;7.40;91.37
71039;SHT30;58692;43.212;27.908;2023-03-04T02:14:00;7.39;91.45
71039;SHT30;58692;43.212;27.908;2023-03-04T02:16:26;7.43;91.31
71039;SHT30;58692;43.212;27.908;2023-03-04T02:18:52;7.43;91.42
71039;SHT30;58692;43.212;27.908;2023-03-04T02:23:52;7.48;91.77
71039;SHT30;58692;43.212;27.908;2023-03-04T02:28:48;7.45;91.50
71039;SHT30;58692;43.212;27.908;2023-03-04T02:33:46;7.30;91.91
71039;SHT30;58692;43.212;27.908;2023-03-04T02:36:12;7.39;91.92
71039;SHT30;58692;43.212;27.908;2023-03-04T02:38:37;7.39;91.68
71039;SHT30;58692;43.212;27.908;2023-03-04T02:41:03;7.39;91.52
71039;SHT30;58692;43.212;27.908;2023-03-04T02:43:29;7.49;91.40
71039;SHT30;58692;43.212;27.908;2023-03-04T02:45:55;7.45;91.12
71039;SHT30;58692;43.212;27.908;2023-03-04T02:48:21;7.45;90.94
71039;SHT30;58692;43.212;27.908;2023-03-04T02:50:50;7.46;90.95
71039;SHT30;58692;43.212;27.908;2023-03-04T02:53:17;7.43;91.00
71039;SHT30;58692;43.212;27.908;2023-03-04T02:55:43;7.39;91.20
71039;SHT30;58692;43.212;27.908;2023-03-04T02:58:10;7.42;91.09
71039;SHT30;58692;43.212;27.908;2023-03-04T03:00:36;7.45;91.37
71039;SHT30;58692;43.212;27.908;2023-03-04T03:03:02;7.48;91.44
71039;SHT30;58692;43.212;27.908;2023-03-04T03:05:30;7.43;91.51
71039;SHT30;58692;43.212;27.908;2023-03-04T03:07:56;7.45;91.70
71039;SHT30;58692;43.212;27.908;2023-03-04T03:10:21;7.43;91.97
71039;SHT30;58692;43.212;27.908;2023-03-04T03:12:47;7.38;92.50
71039;SHT30;58692;43.212;27.908;2023-03-04T03:15:12;7.30;92.79
71039;SHT30;58692;43.212;27.908;2023-03-04T03:17:39;7.28;92.86
71039;SHT30;58692;43.212;27.908;2023-03-04T03:20:05;7.29;92.98
71039;SHT30;58692;43.212;27.908;2023-03-04T03:22:31;7.32;93.14
71039;SHT30;58692;43.212;27.908;2023-03-04T03:24:57;7.35;93.43
71039;SHT30;58692;43.212;27.908;2023-03-04T03:27:23;7.35;93.86
71039;SHT30;58692;43.212;27.908;2023-03-04T03:29:48;7.33;93.50
71039;SHT30;58692;43.212;27.908;2023-03-04T03:32:14;7.36;93.53
71039;SHT30;58692;43.212;27.908;2023-03-04T03:34:39;7.45;93.44
71039;SHT30;58692;43.212;27.908;2023-03-04T03:37:05;7.43;93.35
71039;SHT30;58692;43.212;27.908;2023-03-04T03:39:30;7.50;93.26
71039;SHT30;58692;43.212;27.908;2023-03-04T03:41:56;7.42;93.56
71039;SHT30;58692;43.212;27.908;2023-03-04T03:44:21;7.48;93.27
71039;SHT30;58692;43.212;27.908;2023-03-04T03:46:47;7.52;93.30
71039;SHT30;58692;43.212;27.908;2023-03-04T03:49:12;7.46;93.06
71039;SHT30;58692;43.212;27.908;2023-03-04T03:51:38;7.49;93.20
71039;SHT30;58692;43.212;27.908;2023-03-04T03:54:03;7.45;93.13
71039;SHT30;58692;43.212;27.908;2023-03-04T03:56:29;7.35;93.52
71039;SHT30;58692;43.212;27.908;2023-03-04T03:58:54;7.38;93.33
71039;SHT30;58692;43.212;27.908;2023-03-04T04:01:20;7.42;93.12
71039;SHT30;58692;43.212;27.908;2023-03-04T04:03:46;7.50;93.20
71039;SHT30;58692;43.212;27.908;2023-03-04T04:06:11;7.49;93.14
71039;SHT30;58692;43.212;27.908;2023-03-04T04:08:37;7.43;93.26
71039;SHT30;58692;43.212;27.908;2023-03-04T04:11:02;7.49;93.26
71039;SHT30;58692;43.212;27.908;2023-03-04T04:13:28;7.50;93.11
71039;SHT30;58692;43.212;27.908;2023-03-04T04:15:54;7.50;93.28
71039;SHT30;58692;43.212;27.908;2023-03-04T04:18:19;7.52;93.22
71039;SHT30;58692;43.212;27.908;2023-03-04T04:20:45;7.55;93.16
71039;SHT30;58692;43.212;27.908;2023-03-04T04:23:11;7.52;93.15
71039;SHT30;58692;43.212;27.908;2023-03-04T04:25:37;7.52;93.10
71039;SHT30;58692;43.212;27.908;2023-03-04T04:28:03;7.49;93.03
71039;SHT30;58692;43.212;27.908;2023-03-04T04:30:29;7.40;92.95
71039;SHT30;58692;43.212;27.908;2023-03-04T04:32:54;7.43;92.78
71039;SHT30;58692;43.212;27.908;2023-03-04T04:35:22;7.42;92.97
71039;SHT30;58692;43.212;27.908;2023-03-04T04:37:48;7.43;93.06
71039;SHT30;58692;43.212;27.908;2023-03-04T04:40:14;7.39;93.13
71039;SHT30;58692;43.212;27.908;2023-03-04T04:42:39;7.42;93.07
71039;SHT30;58692;43.212;27.908;2023-03-04T04:45:07;7.36;93.36
71039;SHT30;58692;43.212;27.908;2023-03-04T04:47:33;7.39;93.19
71039;SHT30;58692;43.212;27.908;2023-03-04T04:49:59;7.43;93.09
71039;SHT30;58692;43.212;27.908;2023-03-04T04:52:24;7.38;93.23
71039;SHT30;58692;43.212;27.908;2023-03-04T04:54:50;7.33;93.29
71039;SHT30;58692;43.212;27.908;2023-03-04T04:57:15;7.40;93.15
71039;SHT30;58692;43.212;27.908;2023-03-04T04:59:41;7.40;93.18
71039;SHT30;58692;43.212;27.908;2023-03-04T05:02:06;7.46;93.16
71039;SHT30;58692;43.212;27.908;2023-03-04T05:04:32;7.48;93.25
71039;SHT30;58692;43.212;27.908;2023-03-04T05:06:57;7.39;93.40
71039;SHT30;58692;43.212;27.908;2023-03-04T05:09:23;7.33;93.29
71039;SHT30;58692;43.212;27.908;2023-03-04T05:11:48;7.29;93.16
71039;SHT30;58692;43.212;27.908;2023-03-04T05:14:14;7.35;93.05
71039;SHT30;58692;43.212;27.908;2023-03-04T05:16:40;7.40;92.87
71039;SHT30;58692;43.212;27.908;2023-03-04T05:19:05;7.43;92.87
71039;SHT30;58692;43.212;27.908;2023-03-04T05:21:31;7.43;92.91
71039;SHT30;58692;43.212;27.908;2023-03-04T05:23:57;7.43;93.08
71039;SHT30;58692;43.212;27.908;2023-03-04T05:26:22;7.48;92.77
71039;SHT30;58692;43.212;27.908;2023-03-04T05:28:48;7.49;92.70
71039;SHT30;58692;43.212;27.908;2023-03-04T05:31:13;7.46;92.84
71039;SHT30;58692;43.212;27.908;2023-03-04T05:33:39;7.45;92.93
71039;SHT30;58692;43.212;27.908;2023-03-04T05:36:07;7.46;92.81
71039;SHT30;58692;43.212;27.908;2023-03-04T05:38:33;7.50;92.85
71039;SHT30;58692;43.212;27.908;2023-03-04T05:41:02;7.49;92.78
71039;SHT30;58692;43.212;27.908;2023-03-04T05:43:32;7.42;92.68
71039;SHT30;58692;43.212;27.908;2023-03-04T05:46:00;7.43;92.80
71039;SHT30;58692;43.212;27.908;2023-03-04T05:48:25;7.50;92.47
71039;SHT30;58692;43.212;27.908;2023-03-04T05:50:54;7.53;92.16
71039;SHT30;58692;43.212;27.908;2023-03-04T05:53:22;7.48;92.55
71039;SHT30;58692;43.212;27.908;2023-03-04T05:55:51;7.55;92.43
71039;SHT30;58692;43.212;27.908;2023-03-04T05:58:17;7.62;92.30
71039;SHT30;58692;43.212;27.908;2023-03-04T06:00:43;7.62;92.09
71039;SHT30;58692;43.212;27.908;2023-03-04T06:03:24;7.59;91.86
71039;SHT30;58692;43.212;27.908;2023-03-04T06:05:50;7.59;91.73
71039;SHT30;58692;43.212;27.908;2023-03-04T06:08:15;7.56;91.72
71039;SHT30;58692;43.212;27.908;2023-03-04T06:10:40;7.65;91.54
71039;SHT30;58692;43.212;27.908;2023-03-04T06:13:07;7.63;91.78
71039;SHT30;58692;43.212;27.908;2023-03-04T06:15:33;7.70;91.43
71039;SHT30;58692;43.212;27.908;2023-03-04T06:17:58;7.72;91.25
71039;SHT30;58692;43.212;27.908;2023-03-04T06:20:24;7.70;91.27
71039;SHT30;58692;43.212;27.908;2023-03-04T06:22:49;7.79;91.34
71039;SHT30;58692;43.212;27.908;2023-03-04T06:25:15;7.79;91.20
71039;SHT30;58692;43.212;27.908;2023-03-04T06:27:40;7.83;91.16
71039;SHT30;58692;43.212;27.908;2023-03-04T06:30:07;7.89;91.02
71039;SHT30;58692;43.212;27.908;2023-03-04T06:32:32;7.95;90.67
71039;SHT30;58692;43.212;27.908;2023-03-04T06:34:58;8.00;90.42
71039;SHT30;58692;43.212;27.908;2023-03-04T06:37:24;7.98;90.13
71039;SHT30;58692;43.212;27.908;2023-03-04T06:39:52;8.01;89.87
71039;SHT30;58692;43.212;27.908;2023-03-04T06:42:19;7.97;89.68
71039;SHT30;58692;43.212;27.908;2023-03-04T06:44:44;7.97;90.11
71039;SHT30;58692;43.212;27.908;2023-03-04T06:47:10;8.01;89.82
71039;SHT30;58692;43.212;27.908;2023-03-04T06:49:38;7.87;89.48
71039;SHT30;58692;43.212;27.908;2023-03-04T06:52:03;7.97;89.65
71039;SHT30;58692;43.212;27.908;2023-03-04T06:54:32;8.05;89.57
71039;SHT30;58692;43.212;27.908;2023-03-04T06:56:58;8.17;89.79
71039;SHT30;58692;43.212;27.908;2023-03-04T06:59:23;8.18;89.43
71039;SHT30;58692;43.212;27.908;2023-03-04T07:01:49;8.28;89.08
71039;SHT30;58692;43.212;27.908;2023-03-04T07:04:14;8.27;89.13
71039;SHT30;58692;43.212;27.908;2023-03-04T07:06:40;8.44;89.04
71039;SHT30;58692;43.212;27.908;2023-03-04T07:09:05;8.44;88.88
71039;SHT30;58692;43.212;27.908;2023-03-04T07:11:31;8.59;88.52
71039;SHT30;58692;43.212;27.908;2023-03-04T07:13:57;8.52;87.39
71039;SHT30;58692;43.212;27.908;2023-03-04T07:16:23;8.55;87.31
71039;SHT30;58692;43.212;27.908;2023-03-04T07:18:49;8.62;87.37
71039;SHT30;58692;43.212;27.908;2023-03-04T07:21:16;8.68;87.02
71039;SHT30;58692;43.212;27.908;2023-03-04T07:23:42;8.73;86.38
71039;SHT30;58692;43.212;27.908;2023-03-04T07:26:08;8.73;87.04
71039;SHT30;58692;43.212;27.908;2023-03-04T07:28:35;8.75;86.32
71039;SHT30;58692;43.212;27.908;2023-03-04T07:31:20;8.95;86.17
71039;SHT30;58692;43.212;27.908;2023-03-04T07:33:46;9.07;85.98
71039;SHT30;58692;43.212;27.908;2023-03-04T07:36:11;9.09;85.53
71039;SHT30;58692;43.212;27.908;2023-03-04T07:38:42;9.20;85.53
71039;SHT30;58692;43.212;27.908;2023-03-04T07:41:08;9.27;84.98
71039;SHT30;58692;43.212;27.908;2023-03-04T07:43:33;9.29;84.60
71039;SHT30;58692;43.212;27.908;2023-03-04T07:46:03;9.46;84.87
71039;SHT30;58692;43.212;27.908;2023-03-04T07:48:28;9.60;84.50
71039;SHT30;58692;43.212;27.908;2023-03-04T07:51:13;9.58;84.11
71039;SHT30;58692;43.212;27.908;2023-03-04T07:53:41;9.68;84.05
71039;SHT30;58692;43.212;27.908;2023-03-04T07:56:07;9.77;84.10
71039;SHT30;58692;43.212;27.908;2023-03-04T07:58:35;9.90;84.06
71039;SHT30;58692;43.212;27.908;2023-03-04T08:01:09;10.02;83.82
71039;SHT30;58692;43.212;27.908;2023-03-04T08:03:35;10.11;83.85
71039;SHT30;58692;43.212;27.908;2023-03-04T08:06:03;10.23;82.56
71039;SHT30;58692;43.212;27.908;2023-03-04T08:08:29;10.52;81.62
71039;SHT30;58692;43.212;27.908;2023-03-04T08:10:55;10.84;80.52
71039;SHT30;58692;43.212;27.908;2023-03-04T08:13:21;10.99;79.77
71039;SHT30;58692;43.212;27.908;2023-03-04T08:15:47;11.27;79.33
71039;SHT30;58692;43.212;27.908;2023-03-04T08:18:13;11.78;77.79
71039;SHT30;58692;43.212;27.908;2023-03-04T08:20:41;11.67;79.16
71039;SHT30;58692;43.212;27.908;2023-03-04T08:23:08;11.78;76.48
71039;SHT30;58692;43.212;27.908;2023-03-04T08:25:37;11.95;76.30
71039;SHT30;58692;43.212;27.908;2023-03-04T08:28:03;11.88;75.38
71039;SHT30;58692;43.212;27.908;2023-03-04T08:30:29;11.92;74.77
71039;SHT30;58692;43.212;27.908;2023-03-04T08:32:54;11.83;74.56
71039;SHT30;58692;43.212;27.908;2023-03-04T08:35:20;11.71;75.40
71039;SHT30;58692;43.212;27.908;2023-03-04T08:37:45;12.00;74.27
71039;SHT30;58692;43.212;27.908;2023-03-04T08:40:12;12.54;73.20
71039;SHT30;58692;43.212;27.908;2023-03-04T08:42:37;12.70;70.84
71039;SHT30;58692;43.212;27.908;2023-03-04T08:45:03;12.71;70.67
71039;SHT30;58692;43.212;27.908;2023-03-04T08:47:29;13.11;71.22
71039;SHT30;58692;43.212;27.908;2023-03-04T08:49:54;12.73;70.48
71039;SHT30;58692;43.212;27.908;2023-03-04T08:52:20;12.44;71.45
71039;SHT30;58692;43.212;27.908;2023-03-04T08:54:46;12.36;71.89
71039;SHT30;58692;43.212;27.908;2023-03-04T08:57:12;12.29;70.89
71039;SHT30;58692;43.212;27.908;2023-03-04T08:59:37;12.06;70.88
71039;SHT30;58692;43.212;27.908;2023-03-04T09:02:03;12.57;70.74
71039;SHT30;58692;43.212;27.908;2023-03-04T09:04:28;12.46;71.03
71039;SHT30;58692;43.212;27.908;2023-03-04T09:06:54;12.40;70.13
71039;SHT30;58692;43.212;27.908;2023-03-04T09:09:19;13.29;68.53
71039;SHT30;58692;43.212;27.908;2023-03-04T09:11:48;13.66;66.59
71039;SHT30;58692;43.212;27.908;2023-03-04T09:14:13;14.02;65.99
71039;SHT30;58692;43.212;27.908;2023-03-04T09:16:39;13.56;66.32
71039;SHT30;58692;43.212;27.908;2023-03-04T09:19:05;13.85;65.34
71039;SHT30;58692;43.212;27.908;2023-03-04T09:21:30;13.73;64.20
71039;SHT30;58692;43.212;27.908;2023-03-04T09:23:56;13.61;65.67
71039;SHT30;58692;43.212;27.908;2023-03-04T09:26:24;13.55;65.09
71039;SHT30;58692;43.212;27.908;2023-03-04T09:28:52;14.07;63.54
71039;SHT30;58692;43.212;27.908;2023-03-04T09:31:18;13.83;64.32
71039;SHT30;58692;43.212;27.908;2023-03-04T09:33:44;14.21;63.99
71039;SHT30;58692;43.212;27.908;2023-03-04T09:36:12;14.34;62.57
71039;SHT30;58692;43.212;27.908;2023-03-04T09:38:38;13.69;64.00
71039;SHT30;58692;43.212;27.908;2023-03-04T09:41:17;14.61;61.80
71039;SHT30;58692;43.212;27.908;2023-03-04T09:43:44;14.13;63.81
71039;SHT30;58692;43.212;27.908;2023-03-04T09:46:14;14.31;63.18
71039;SHT30;58692;43.212;27.908;2023-03-04T09:48:47;15.15;61.26
71039;SHT30;58692;43.212;27.908;2023-03-04T09:54:15;14.58;62.38
71039;SHT30;58692;43.212;27.908;2023-03-04T09:56:43;13.70;63.90
71039;SHT30;58692;43.212;27.908;2023-03-04T09:59:29;14.03;64.50
71039;SHT30;58692;43.212;27.908;2023-03-04T10:01:56;13.41;66.55
71039;SHT30;58692;43.212;27.908;2023-03-04T10:04:39;13.65;66.51
71039;SHT30;58692;43.212;27.908;2023-03-04T10:07:14;14.24;64.53
71039;SHT30;58692;43.212;27.908;2023-03-04T10:09:50;14.78;63.13
71039;SHT30;58692;43.212;27.908;2023-03-04T10:12:21;15.31;62.16
71039;SHT30;58692;43.212;27.908;2023-03-04T10:14:53;15.69;60.12
71039;SHT30;58692;43.212;27.908;2023-03-04T10:17:37;15.18;60.95
71039;SHT30;58692;43.212;27.908;2023-03-04T10:20:10;16.03;59.35
71039;SHT30;58692;43.212;27.908;2023-03-04T10:22:47;15.40;60.45
71039;SHT30;58692;43.212;27.908;2023-03-04T10:28:03;15.94;58.37
71039;SHT30;58692;43.212;27.908;2023-03-04T10:33:14;15.56;60.69
71039;SHT30;58692;43.212;27.908;2023-03-04T10:35:45;16.14;60.11
71039;SHT30;58692;43.212;27.908;2023-03-04T10:38:12;17.00;56.31
71039;SHT30;58692;43.212;27.908;2023-03-04T10:40:40;17.39;55.05
71039;SHT30;58692;43.212;27.908;2023-03-04T10:43:16;17.30;55.97
71039;SHT30;58692;43.212;27.908;2023-03-04T10:45:42;17.61;55.03
71039;SHT30;58692;43.212;27.908;2023-03-04T10:48:19;16.98;55.90
71039;SHT30;58692;43.212;27.908;2023-03-04T10:50:44;17.44;54.96
71039;SHT30;58692;43.212;27.908;2023-03-04T10:53:30;16.00;58.13
71039;SHT30;58692;43.212;27.908;2023-03-04T10:55:58;16.29;57.80
71039;SHT30;58692;43.212;27.908;2023-03-04T10:58:23;17.87;55.59
71039;SHT30;58692;43.212;27.908;2023-03-04T11:01:00;18.01;54.07
71039;SHT30;58692;43.212;27.908;2023-03-04T11:06:04;17.40;54.18
71039;SHT30;58692;43.212;27.908;2023-03-04T11:08:29;17.15;55.14
71039;SHT30;58692;43.212;27.908;2023-03-04T11:10:55;16.78;55.52
71039;SHT30;58692;43.212;27.908;2023-03-04T11:13:23;17.71;53.15
71039;SHT30;58692;43.212;27.908;2023-03-04T11:16:04;16.75;55.27
71039;SHT30;58692;43.212;27.908;2023-03-04T11:18:47;16.61;55.79
71039;SHT30;58692;43.212;27.908;2023-03-04T11:21:16;15.86;56.90
71039;SHT30;58692;43.212;27.908;2023-03-04T11:23:52;17.31;54.45
71039;SHT30;58692;43.212;27.908;2023-03-04T11:26:23;17.87;52.86
71039;SHT30;58692;43.212;27.908;2023-03-04T11:28:57;17.74;51.97
71039;SHT30;58692;43.212;27.908;2023-03-04T11:31:31;16.59;54.95
71039;SHT30;58692;43.212;27.908;2023-03-04T11:34:06;16.58;55.55
71039;SHT30;58692;43.212;27.908;2023-03-04T11:36:51;17.27;54.15
71039;SHT30;58692;43.212;27.908;2023-03-04T11:44:33;15.84;56.63
71039;SHT30;58692;43.212;27.908;2023-03-04T11:47:19;16.14;56.20
71039;SHT30;58692;43.212;27.908;2023-03-04T11:50:13;15.91;56.25
71039;SHT30;58692;43.212;27.908;2023-03-04T11:55:45;16.44;54.63
71039;SHT30;58692;43.212;27.908;2023-03-04T11:58:39;16.88;54.74
71039;SHT30;58692;43.212;27.908;2023-03-04T12:01:14;17.51;53.23
71039;SHT30;58692;43.212;27.908;2023-03-04T12:14:50;15.26;57.96
71039;SHT30;58692;43.212;27.908;2023-03-04T12:20:25;15.97;56.17
71039;SHT30;58692;43.212;27.908;2023-03-04T12:31:41;13.77;64.28
71039;SHT30;58692;43.212;27.908;2023-03-04T12:34:30;13.38;66.43
71039;SHT30;58692;43.212;27.908;2023-03-04T12:37:21;13.10;67.80
71039;SHT30;58692;43.212;27.908;2023-03-04T12:40:05;13.05;68.14
71039;SHT30;58692;43.212;27.908;2023-03-04T12:56:01;11.86;73.13
71039;SHT30;58692;43.212;27.908;2023-03-04T12:58:29;11.69;73.90
71039;SHT30;58692;43.212;27.908;2023-03-04T13:03:51;11.92;73.32
71039;SHT30;58692;43.212;27.908;2023-03-04T13:14:02;11.00;76.92
71039;SHT30;58692;43.212;27.908;2023-03-04T13:16:33;11.07;76.89
71039;SHT30;58692;43.212;27.908;2023-03-04T13:19:01;11.03;77.16
71039;SHT30;58692;43.212;27.908;2023-03-04T13:21:28;11.28;76.43
71039;SHT30;58692;43.212;27.908;2023-03-04T13:23:57;11.47;75.64
71039;SHT30;58692;43.212;27.908;2023-03-04T13:26:28;11.69;75.28
71039;SHT30;58692;43.212;27.908;2023-03-04T13:29:10;11.79;74.42
71039;SHT30;58692;43.212;27.908;2023-03-04T13:32:04;11.57;73.80
71039;SHT30;58692;43.212;27.908;2023-03-04T13:34:49;11.30;75.93
71039;SHT30;58692;43.212;27.908;2023-03-04T13:37:27;11.59;74.94
71039;SHT30;58692;43.212;27.908;2023-03-04T13:42:52;11.68;74.72
71039;SHT30;58692;43.212;27.908;2023-03-04T13:45:34;11.67;74.87
71039;SHT30;58692;43.212;27.908;2023-03-04T13:48:02;11.68;74.88
71039;SHT30;58692;43.212;27.908;2023-03-04T13:50:45;11.72;75.04
71039;SHT30;58692;43.212;27.908;2023-03-04T13:56:24;11.89;74.22
71039;SHT30;58692;43.212;27.908;2023-03-04T13:59:11;11.69;74.69
71039;SHT30;58692;43.212;27.908;2023-03-04T14:04:23;11.35;76.00
71039;SHT30;58692;43.212;27.908;2023-03-04T14:06:52;11.51;74.95
71039;SHT30;58692;43.212;27.908;2023-03-04T14:11:52;11.28;75.75
71039;SHT30;58692;43.212;27.908;2023-03-04T14:14:30;11.03;76.61
71039;SHT30;58692;43.212;27.908;2023-03-04T14:17:00;11.03;76.98
71039;SHT30;58692;43.212;27.908;2023-03-04T14:19:30;11.01;76.90
71039;SHT30;58692;43.212;27.908;2023-03-04T14:21:59;11.16;76.95
71039;SHT30;58692;43.212;27.908;2023-03-04T14:24:29;11.24;76.52
71039;SHT30;58692;43.212;27.908;2023-03-04T14:27:13;11.11;76.79
71039;SHT30;58692;43.212;27.908;2023-03-04T14:29:39;11.18;76.71
71039;SHT30;58692;43.212;27.908;2023-03-04T14:32:05;11.07;76.79
71039;SHT30;58692;43.212;27.908;2023-03-04T14:34:34;11.01;76.86
71039;SHT30;58692;43.212;27.908;2023-03-04T14:37:01;11.04;76.83
71039;SHT30;58692;43.212;27.908;2023-03-04T14:39:30;11.14;76.87
71039;SHT30;58692;43.212;27.908;2023-03-04T14:42:02;11.21;76.73
71039;SHT30;58692;43.212;27.908;2023-03-04T14:44:41;11.34;76.12
71039;SHT30;58692;43.212;27.908;2023-03-04T14:49:55;11.06;77.35
71039;SHT30;58692;43.212;27.908;2023-03-04T14:57:45;10.22;80.82
71039;SHT30;58692;43.212;27.908;2023-03-04T15:00:23;10.13;81.77
71039;SHT30;58692;43.212;27.908;2023-03-04T15:02:53;10.01;81.86
71039;SHT30;58692;43.212;27.908;2023-03-04T15:07:55;10.28;81.42
71039;SHT30;58692;43.212;27.908;2023-03-04T15:10:25;10.23;81.33
71039;SHT30;58692;43.212;27.908;2023-03-04T15:12:54;10.11;81.79
71039;SHT30;58692;43.212;27.908;2023-03-04T15:15:40;10.02;82.09
71039;SHT30;58692;43.212;27.908;2023-03-04T15:18:23;10.12;81.84
71039;SHT30;58692;43.212;27.908;2023-03-04T15:20:59;9.92;81.30
71039;SHT30;58692;43.212;27.908;2023-03-04T15:23:27;10.03;80.53
71039;SHT30;58692;43.212;27.908;2023-03-04T15:25:56;9.94;80.62
71039;SHT30;58692;43.212;27.908;2023-03-04T15:28:22;10.08;80.52
71039;SHT30;58692;43.212;27.908;2023-03-04T15:30:48;10.21;80.57
71039;SHT30;58692;43.212;27.908;2023-03-04T15:33:14;10.06;81.09
71039;SHT30;58692;43.212;27.908;2023-03-04T15:35:49;10.08;81.31
71039;SHT30;58692;43.212;27.908;2023-03-04T15:38:16;10.12;81.28
71039;SHT30;58692;43.212;27.908;2023-03-04T15:40:42;10.03;81.40
71039;SHT30;58692;43.212;27.908;2023-03-04T15:43:12;9.99;81.10
71039;SHT30;58692;43.212;27.908;2023-03-04T15:45:38;9.87;82.00
71039;SHT30;58692;43.212;27.908;2023-03-04T15:48:05;9.64;82.81
71039;SHT30;58692;43.212;27.908;2023-03-04T15:50:35;9.70;82.65
71039;SHT30;58692;43.212;27.908;2023-03-04T15:53:04;9.68;82.63
71039;SHT30;58692;43.212;27.908;2023-03-04T15:55:31;9.51;83.17
71039;SHT30;58692;43.212;27.908;2023-03-04T15:57:58;9.44;83.54
71039;SHT30;58692;43.212;27.908;2023-03-04T16:00:24;9.57;83.25
71039;SHT30;58692;43.212;27.908;2023-03-04T16:02:50;9.46;83.32
71039;SHT30;58692;43.212;27.908;2023-03-04T16:05:16;9.33;84.12
71039;SHT30;58692;43.212;27.908;2023-03-04T16:07:46;9.33;83.92
71039;SHT30;58692;43.212;27.908;2023-03-04T16:10:19;9.36;83.98
71039;SHT30;58692;43.212;27.908;2023-03-04T16:12:45;9.16;84.52
71039;SHT30;58692;43.212;27.908;2023-03-04T16:15:24;9.19;84.66
71039;SHT30;58692;43.212;27.908;2023-03-04T16:17:50;9.27;84.43
71039;SHT30;58692;43.212;27.908;2023-03-04T16:20:18;9.27;84.33
71039;SHT30;58692;43.212;27.908;2023-03-04T16:22:47;9.27;84.23
71039;SHT30;58692;43.212;27.908;2023-03-04T16:25:15;9.20;84.39
71039;SHT30;58692;43.212;27.908;2023-03-04T16:27:41;9.22;84.53
71039;SHT30;58692;43.212;27.908;2023-03-04T16:30:17;9.15;84.71
71039;SHT30;58692;43.212;27.908;2023-03-04T16:32:43;9.06;84.81
71039;SHT30;58692;43.212;27.908;2023-03-04T16:35:09;8.99;85.12
71039;SHT30;58692;43.212;27.908;2023-03-04T16:37:36;9.02;85.25
71039;SHT30;58692;43.212;27.908;2023-03-04T16:40:02;9.05;84.88
71039;SHT30;58692;43.212;27.908;2023-03-04T16:42:29;8.92;84.71
71039;SHT30;58692;43.212;27.908;2023-03-04T16:44:55;8.96;84.79
71039;SHT30;58692;43.212;27.908;2023-03-04T16:47:21;8.75;85.70
71039;SHT30;58692;43.212;27.908;2023-03-04T16:49:47;8.90;85.42
71039;SHT30;58692;43.212;27.908;2023-03-04T16:52:21;8.96;84.90
71039;SHT30;58692;43.212;27.908;2023-03-04T16:54:48;8.97;84.91
71039;SHT30;58692;43.212;27.908;2023-03-04T16:57:14;8.90;84.99
71039;SHT30;58692;43.212;27.908;2023-03-04T16:59:39;9.02;84.64
71039;SHT30;58692;43.212;27.908;2023-03-04T17:02:14;9.02;84.86
71039;SHT30;58692;43.212;27.908;2023-03-04T17:04:42;9.00;84.62
71039;SHT30;58692;43.212;27.908;2023-03-04T17:07:07;9.09;84.45
71039;SHT30;58692;43.212;27.908;2023-03-04T17:09:33;9.15;84.19